sensor_id;sensor_type;location;lat;lon;timestamp;temperature;humidity
4187;DHT22;2107;52.306;10.484;2024-03-02T00:00:23;7.90;99.90
4187;DHT22;2107;52.306;10.484;2024-03-02T00:02:51;7.90;99.90
4187;DHT22;2107;52.306;10.484;2024-03-02T00:05:20;7.90;99.90
4187;DHT22;2107;52.306;10.484;2024-03-02T00:07:53;7.90;99.90
4187;DHT22;2107;52.306;10.484;2024-03-02T00:10:22;7.90;99.90
4187;DHT22;2107;52.306;10.484;2024-03-02T00:12:55;7.80;99.90
4187;DHT22;2107;52.306;10.484;2024-03-02T00:15:40;7.80;99.90
4187;DHT22;2107;52.306;10.484;2024-03-02T00:18:08;7.80;99.90
4187;DHT22;2107;52.306;10.484;2024-03-02T00:20:36;7.80;99.90
4187;DHT22;2107;52.306;10.484;2024-03-02T00:23:04;7.80;99.90
4187;DHT22;2107;52.306;10.484;2024-03-02T00:25:38;7.80;99.90
4187;DHT22;2107;52.306;10.484;2024-03-02T00:28:14;7.80;99.90
4187;DHT22;2107;52.306;10.484;2024-03-02T00:30:54;7.80;99.90
4187;DHT22;2107;52.306;10.484;2024-03-02T00:33:22;7.80;99.90
4187;DHT22;2107;52.306;10.484;2024-03-02T00:35:50;7.80;99.90
4187;DHT22;2107;52.306;10.484;2024-03-02T00:38:18;7.80;99.90
4187;DHT22;2107;52.306;10.484;2024-03-02T00:40:45;7.80;99.90
4187;DHT22;2107;52.306;10.484;2024-03-02T00:43:41;7.70;99.90
4187;DHT22;2107;52.306;10.484;2024-03-02T00:46:08;7.80;99.90
4187;DHT22;2107;52.306;10.484;2024-03-02T00:48:34;7.80;99.90
4187;DHT22;2107;52.306;10.484;2024-03-02T00:51:04;7.80;99.90
4187;DHT22;2107;52.306;10.484;2024-03-02T00:53:31;7.80;99.90
4187;DHT22;2107;52.306;10.484;2024-03-02T00:55:59;7.80;99.90
4187;DHT22;2107;52.306;10.484;2024-03-02T00:58:26;7.90;99.90
4187;DHT22;2107;52.306;10.484;2024-03-02T01:00:53;7.90;99.90
4187;DHT22;2107;52.306;10.484;2024-03-02T01:03:21;8.00;99.90
4187;DHT22;2107;52.306;10.484;2024-03-02T01:05:48;7.90;99.90
4187;DHT22;2107;52.306;10.484;2024-03-02T01:08:16;7.90;99.90
4187;DHT22;2107;52.306;10.484;2024-03-02T01:10:43;7.90;99.90
4187;DHT22;2107;52.306;10.484;2024-03-02T01:13:10;7.80;99.90
4187;DHT22;2107;52.306;10.484;2024-03-02T01:15:38;7.70;99.90
4187;DHT22;2107;52.306;10.484;2024-03-02T01:18:05;7.80;99.90
4187;DHT22;2107;52.306;10.484;2024-03-02T01:20:31;7.70;99.90
4187;DHT22;2107;52.306;10.484;2024-03-02T01:22:59;7.60;99.90
4187;DHT22;2107;52.306;10.484;2024-03-02T01:25:27;7.70;99.90
4187;DHT22;2107;52.306;10.484;2024-03-02T01:27:54;7.70;99.90
4187;DHT22;2107;52.306;10.484;2024-03-02T01:30:20;7.90;99.90
4187;DHT22;2107;52.306;10.484;2024-03-02T01:32:48;7.70;99.90
4187;DHT22;2107;52.306;10.484;2024-03-02T01:35:14;7.70;99.90
4187;DHT22;2107;52.306;10.484;2024-03-02T01:37:42;7.70;99.90
4187;DHT22;2107;52.306;10.484;2024-03-02T01:40:10;7.70;99.90
4187;DHT22;2107;52.306;10.484;2024-03-02T01:42:39;7.70;99.90
4187;DHT22;2107;52.306;10.484;2024-03-02T01:45:07;7.80;99.90
4187;DHT22;2107;52.306;10.484;2024-03-02T01:47:34;7.70;99.90
4187;DHT22;2107;52.306;10.484;2024-03-02T01:50:02;7.80;99.90
4187;DHT22;2107;52.306;10.484;2024-03-02T01:52:29;7.80;99.90
4187;DHT22;2107;52.306;10.484;2024-03-02T01:54:56;7.70;99.90
4187;DHT22;2107;52.306;10.484;2024-03-02T01:57:23;7.60;99.90
4187;DHT22;2107;52.306;10.484;2024-03-02T01:59:52;7.70;99.90
4187;DHT22;2107;52.306;10.484;2024-03-02T02:02:19;7.70;99.90
4187;DHT22;2107;52.306;10.484;2024-03-02T02:04:46;7.70;99.90
4187;DHT22;2107;52.306;10.484;2024-03-02T02:07:13;7.60;99.90
4187;DHT22;2107;52.306;10.484;2024-03-02T02:09:41;7.60;99.90
4187;DHT22;2107;52.306;10.484;2024-03-02T02:12:08;7.70;99.90
4187;DHT22;2107;52.306;10.484;2024-03-02T02:14:35;7.50;99.90
4187;DHT22;2107;52.306;10.484;2024-03-02T02:17:04;7.50;99.90
4187;DHT22;2107;52.306;10.484;2024-03-02T02:19:31;7.40;99.90
4187;DHT22;2107;52.306;10.484;2024-03-02T02:21:59;7.40;99.90
4187;DHT22;2107;52.306;10.484;2024-03-02T02:24:26;7.40;99.90
4187;DHT22;2107;52.306;10.484;2024-03-02T02:26:53;7.40;99.90
4187;DHT22;2107;52.306;10.484;2024-03-02T02:29:20;7.40;99.90
4187;DHT22;2107;52.306;10.484;2024-03-02T02:31:47;7.50;99.90
4187;DHT22;2107;52.306;10.484;2024-03-02T02:34:14;7.50;99.90
4187;DHT22;2107;52.306;10.484;2024-03-02T02:36:41;7.50;99.90
4187;DHT22;2107;52.306;10.484;2024-03-02T02:39:13;7.40;99.90
4187;DHT22;2107;52.306;10.484;2024-03-02T02:41:41;7.40;99.90
4187;DHT22;2107;52.306;10.484;2024-03-02T02:44:08;7.40;99.90
4187;DHT22;2107;52.306;10.484;2024-03-02T02:46:37;7.40;99.90
4187;DHT22;2107;52.306;10.484;2024-03-02T02:49:04;7.40;99.90
4187;DHT22;2107;52.306;10.484;2024-03-02T02:51:31;7.40;99.90
4187;DHT22;2107;52.306;10.484;2024-03-02T02:53:58;7.30;99.90
4187;DHT22;2107;52.306;10.484;2024-03-02T02:56:26;7.30;99.90
4187;DHT22;2107;52.306;10.484;2024-03-02T02:58:53;7.20;1.00
4187;DHT22;2107;52.306;10.484;2024-03-02T03:01:19;7.20;1.00
4187;DHT22;2107;52.306;10.484;2024-03-02T03:03:46;7.20;1.00
4187;DHT22;2107;52.306;10.484;2024-03-02T03:06:13;7.30;1.00
4187;DHT22;2107;52.306;10.484;2024-03-02T03:08:41;7.30;1.00
4187;DHT22;2107;52.306;10.484;2024-03-02T03:11:07;7.30;1.00
4187;DHT22;2107;52.306;10.484;2024-03-02T03:13:36;7.40;1.00
4187;DHT22;2107;52.306;10.484;2024-03-02T03:16:03;7.40;1.00
4187;DHT22;2107;52.306;10.484;2024-03-02T03:18:31;7.50;1.00
4187;DHT22;2107;52.306;10.484;2024-03-02T03:20:58;7.50;1.00
4187;DHT22;2107;52.306;10.484;2024-03-02T03:23:24;7.50;1.00
4187;DHT22;2107;52.306;10.484;2024-03-02T03:25:51;7.40;99.90
4187;DHT22;2107;52.306;10.484;2024-03-02T03:28:18;7.30;1.00
4187;DHT22;2107;52.306;10.484;2024-03-02T03:30:46;7.30;1.00
4187;DHT22;2107;52.306;10.484;2024-03-02T03:33:13;7.30;1.00
4187;DHT22;2107;52.306;10.484;2024-03-02T03:35:40;7.30;1.00
4187;DHT22;2107;52.306;10.484;2024-03-02T03:38:07;7.30;1.00
4187;DHT22;2107;52.306;10.484;2024-03-02T03:40:34;7.20;1.00
4187;DHT22;2107;52.306;10.484;2024-03-02T03:43:00;7.10;1.00
4187;DHT22;2107;52.306;10.484;2024-03-02T03:45:27;7.20;1.00
4187;DHT22;2107;52.306;10.484;2024-03-02T03:47:57;7.20;1.00
4187;DHT22;2107;52.306;10.484;2024-03-02T03:50:24;7.20;1.00
4187;DHT22;2107;52.306;10.484;2024-03-02T03:52:51;7.20;11.50
4187;DHT22;2107;52.306;10.484;2024-03-02T03:55:18;7.10;8.20
4187;DHT22;2107;52.306;10.484;2024-03-02T03:57:44;7.10;70.00
4187;DHT22;2107;52.306;10.484;2024-03-02T04:00:12;7.10;99.90
4187;DHT22;2107;52.306;10.484;2024-03-02T04:02:39;7.00;99.90
4187;DHT22;2107;52.306;10.484;2024-03-02T04:05:08;7.00;99.90
4187;DHT22;2107;52.306;10.484;2024-03-02T04:07:36;7.00;99.90
4187;DHT22;2107;52.306;10.484;2024-03-02T04:10:07;7.00;99.90
4187;DHT22;2107;52.306;10.484;2024-03-02T04:12:35;7.00;99.90
4187;DHT22;2107;52.306;10.484;2024-03-02T04:15:04;7.00;99.90
4187;DHT22;2107;52.306;10.484;2024-03-02T04:17:32;7.00;99.90
4187;DHT22;2107;52.306;10.484;2024-03-02T04:19:59;7.00;99.90
4187;DHT22;2107;52.306;10.484;2024-03-02T04:22:28;7.00;97.20
4187;DHT22;2107;52.306;10.484;2024-03-02T04:24:55;7.00;95.10
4187;DHT22;2107;52.306;10.484;2024-03-02T04:27:22;7.00;99.90
4187;DHT22;2107;52.306;10.484;2024-03-02T04:29:48;7.00;99.90
4187;DHT22;2107;52.306;10.484;2024-03-02T04:32:15;7.00;99.90
4187;DHT22;2107;52.306;10.484;2024-03-02T04:34:42;7.00;99.90
4187;DHT22;2107;52.306;10.484;2024-03-02T04:37:11;6.90;84.40
4187;DHT22;2107;52.306;10.484;2024-03-02T04:39:41;6.90;99.90
4187;DHT22;2107;52.306;10.484;2024-03-02T04:42:08;6.80;94.10
4187;DHT22;2107;52.306;10.484;2024-03-02T04:44:35;6.80;74.00
4187;DHT22;2107;52.306;10.484;2024-03-02T04:47:02;6.90;99.90
4187;DHT22;2107;52.306;10.484;2024-03-02T04:49:29;6.70;65.30
4187;DHT22;2107;52.306;10.484;2024-03-02T04:51:56;6.70;90.40
4187;DHT22;2107;52.306;10.484;2024-03-02T04:54:23;6.80;99.90
4187;DHT22;2107;52.306;10.484;2024-03-02T04:56:51;6.70;99.90
4187;DHT22;2107;52.306;10.484;2024-03-02T04:59:19;6.70;99.90
4187;DHT22;2107;52.306;10.484;2024-03-02T05:01:46;6.80;99.90
4187;DHT22;2107;52.306;10.484;2024-03-02T05:04:13;6.80;99.90
4187;DHT22;2107;52.306;10.484;2024-03-02T05:06:40;6.80;81.80
4187;DHT22;2107;52.306;10.484;2024-03-02T05:09:08;6.80;29.80
4187;DHT22;2107;52.306;10.484;2024-03-02T05:11:35;6.80;1.00
4187;DHT22;2107;52.306;10.484;2024-03-02T05:14:26;6.80;1.00
4187;DHT22;2107;52.306;10.484;2024-03-02T05:16:54;6.90;1.00
4187;DHT22;2107;52.306;10.484;2024-03-02T05:19:21;6.90;1.00
4187;DHT22;2107;52.306;10.484;2024-03-02T05:21:48;6.90;1.00
4187;DHT22;2107;52.306;10.484;2024-03-02T05:24:15;6.80;1.00
4187;DHT22;2107;52.306;10.484;2024-03-02T05:26:42;6.80;1.00
4187;DHT22;2107;52.306;10.484;2024-03-02T05:29:09;6.70;1.00
4187;DHT22;2107;52.306;10.484;2024-03-02T05:31:37;6.70;1.00
4187;DHT22;2107;52.306;10.484;2024-03-02T05:34:04;6.60;1.00
4187;DHT22;2107;52.306;10.484;2024-03-02T05:36:31;6.60;15.10
4187;DHT22;2107;52.306;10.484;2024-03-02T05:38:58;6.60;24.50
4187;DHT22;2107;52.306;10.484;2024-03-02T05:41:25;6.50;84.40
4187;DHT22;2107;52.306;10.484;2024-03-02T05:43:52;6.50;99.90
4187;DHT22;2107;52.306;10.484;2024-03-02T05:46:19;6.40;99.90
4187;DHT22;2107;52.306;10.484;2024-03-02T05:48:47;6.40;99.90
4187;DHT22;2107;52.306;10.484;2024-03-02T05:51:14;6.40;99.90
4187;DHT22;2107;52.306;10.484;2024-03-02T05:53:41;6.30;99.90
4187;DHT22;2107;52.306;10.484;2024-03-02T05:56:08;6.30;99.90
4187;DHT22;2107;52.306;10.484;2024-03-02T05:58:35;6.20;99.90
4187;DHT22;2107;52.306;10.484;2024-03-02T06:01:15;6.20;1.00
4187;DHT22;2107;52.306;10.484;2024-03-02T06:03:43;6.20;1.00
4187;DHT22;2107;52.306;10.484;2024-03-02T06:06:11;6.20;1.00
4187;DHT22;2107;52.306;10.484;2024-03-02T06:08:38;6.20;1.70
4187;DHT22;2107;52.306;10.484;2024-03-02T06:11:05;6.10;1.00
4187;DHT22;2107;52.306;10.484;2024-03-02T06:13:32;6.10;1.00
4187;DHT22;2107;52.306;10.484;2024-03-02T06:15:59;6.20;99.90
4187;DHT22;2107;52.306;10.484;2024-03-02T06:18:26;6.30;1.00
4187;DHT22;2107;52.306;10.484;2024-03-02T06:20:53;6.40;99.90
4187;DHT22;2107;52.306;10.484;2024-03-02T06:23:21;6.50;99.90
4187;DHT22;2107;52.306;10.484;2024-03-02T06:25:48;6.50;99.90
4187;DHT22;2107;52.306;10.484;2024-03-02T06:28:15;6.60;99.90
4187;DHT22;2107;52.306;10.484;2024-03-02T06:30:42;6.70;1.00
4187;DHT22;2107;52.306;10.484;2024-03-02T06:33:09;6.80;1.00
4187;DHT22;2107;52.306;10.484;2024-03-02T06:35:36;6.80;1.00
4187;DHT22;2107;52.306;10.484;2024-03-02T06:38:03;6.80;1.00
4187;DHT22;2107;52.306;10.484;2024-03-02T06:40:32;6.80;1.00
4187;DHT22;2107;52.306;10.484;2024-03-02T06:42:59;6.90;1.00
4187;DHT22;2107;52.306;10.484;2024-03-02T06:45:26;6.80;1.00
4187;DHT22;2107;52.306;10.484;2024-03-02T06:47:54;6.90;1.00
4187;DHT22;2107;52.306;10.484;2024-03-02T06:50:21;6.90;1.00
4187;DHT22;2107;52.306;10.484;2024-03-02T06:52:48;6.80;1.00
4187;DHT22;2107;52.306;10.484;2024-03-02T06:55:15;6.80;1.00
4187;DHT22;2107;52.306;10.484;2024-03-02T06:57:43;6.80;1.00
4187;DHT22;2107;52.306;10.484;2024-03-02T07:00:11;6.80;1.00
4187;DHT22;2107;52.306;10.484;2024-03-02T07:02:39;6.90;99.90
4187;DHT22;2107;52.306;10.484;2024-03-02T07:05:07;6.90;99.90
4187;DHT22;2107;52.306;10.484;2024-03-02T07:07:34;7.00;99.90
4187;DHT22;2107;52.306;10.484;2024-03-02T07:10:02;7.10;99.90
4187;DHT22;2107;52.306;10.484;2024-03-02T07:12:29;7.00;99.90
4187;DHT22;2107;52.306;10.484;2024-03-02T07:14:58;7.00;99.90
4187;DHT22;2107;52.306;10.484;2024-03-02T07:17:53;7.00;99.90
4187;DHT22;2107;52.306;10.484;2024-03-02T07:20:20;7.10;99.90
4187;DHT22;2107;52.306;10.484;2024-03-02T07:22:48;7.00;99.90
4187;DHT22;2107;52.306;10.484;2024-03-02T07:25:14;7.00;99.90
4187;DHT22;2107;52.306;10.484;2024-03-02T07:27:41;7.00;99.90
4187;DHT22;2107;52.306;10.484;2024-03-02T07:30:13;7.10;99.90
4187;DHT22;2107;52.306;10.484;2024-03-02T07:32:41;7.00;99.90
4187;DHT22;2107;52.306;10.484;2024-03-02T07:35:11;7.20;99.90
4187;DHT22;2107;52.306;10.484;2024-03-02T07:37:39;7.10;99.90
4187;DHT22;2107;52.306;10.484;2024-03-02T07:40:07;7.20;99.90
4187;DHT22;2107;52.306;10.484;2024-03-02T07:42:37;7.30;99.90
4187;DHT22;2107;52.306;10.484;2024-03-02T07:45:05;7.40;99.90
4187;DHT22;2107;52.306;10.484;2024-03-02T07:47:34;7.50;99.90
4187;DHT22;2107;52.306;10.484;2024-03-02T07:50:01;7.60;99.90
4187;DHT22;2107;52.306;10.484;2024-03-02T07:52:28;7.80;99.90
4187;DHT22;2107;52.306;10.484;2024-03-02T07:54:55;7.90;99.90
4187;DHT22;2107;52.306;10.484;2024-03-02T07:57:23;8.10;99.90
4187;DHT22;2107;52.306;10.484;2024-03-02T07:59:51;8.20;99.90
4187;DHT22;2107;52.306;10.484;2024-03-02T08:02:19;8.30;99.90
4187;DHT22;2107;52.306;10.484;2024-03-02T08:04:47;8.30;99.90
4187;DHT22;2107;52.306;10.484;2024-03-02T08:07:16;8.50;99.90
4187;DHT22;2107;52.306;10.484;2024-03-02T08:09:43;8.70;99.90
4187;DHT22;2107;52.306;10.484;2024-03-02T08:12:12;8.70;99.90
4187;DHT22;2107;52.306;10.484;2024-03-02T08:14:42;9.00;99.90
4187;DHT22;2107;52.306;10.484;2024-03-02T08:17:09;9.00;99.90
4187;DHT22;2107;52.306;10.484;2024-03-02T08:19:37;9.10;99.90
4187;DHT22;2107;52.306;10.484;2024-03-02T08:22:05;9.40;99.90
4187;DHT22;2107;52.306;10.484;2024-03-02T08:24:33;9.40;93.40
4187;DHT22;2107;52.306;10.484;2024-03-02T08:27:04;9.50;95.40
4187;DHT22;2107;52.306;10.484;2024-03-02T08:29:32;9.70;91.00
4187;DHT22;2107;52.306;10.484;2024-03-02T08:31:59;9.70;71.70
4187;DHT22;2107;52.306;10.484;2024-03-02T08:34:26;9.90;58.20
4187;DHT22;2107;52.306;10.484;2024-03-02T08:36:56;9.90;52.40
4187;DHT22;2107;52.306;10.484;2024-03-02T08:39:24;9.90;47.60
4187;DHT22;2107;52.306;10.484;2024-03-02T08:41:51;10.00;37.10
4187;DHT22;2107;52.306;10.484;2024-03-02T08:44:18;9.80;28.90
4187;DHT22;2107;52.306;10.484;2024-03-02T08:46:45;9.80;32.00
4187;DHT22;2107;52.306;10.484;2024-03-02T08:49:13;10.10;28.00
4187;DHT22;2107;52.306;10.484;2024-03-02T08:51:40;10.10;20.50
4187;DHT22;2107;52.306;10.484;2024-03-02T08:54:07;10.30;21.00
4187;DHT22;2107;52.306;10.484;2024-03-02T08:56:35;10.40;19.70
4187;DHT22;2107;52.306;10.484;2024-03-02T08:59:02;10.50;15.40
4187;DHT22;2107;52.306;10.484;2024-03-02T09:01:29;10.70;9.50
4187;DHT22;2107;52.306;10.484;2024-03-02T09:03:56;11.10;1.00
4187;DHT22;2107;52.306;10.484;2024-03-02T09:06:23;10.80;1.00
4187;DHT22;2107;52.306;10.484;2024-03-02T09:08:51;11.10;1.00
4187;DHT22;2107;52.306;10.484;2024-03-02T09:11:17;11.30;1.00
4187;DHT22;2107;52.306;10.484;2024-03-02T09:13:46;11.40;1.00
4187;DHT22;2107;52.306;10.484;2024-03-02T09:16:13;11.90;1.00
4187;DHT22;2107;52.306;10.484;2024-03-02T09:18:39;12.20;1.00
4187;DHT22;2107;52.306;10.484;2024-03-02T09:21:06;12.00;1.00
4187;DHT22;2107;52.306;10.484;2024-03-02T09:23:33;12.20;1.00
4187;DHT22;2107;52.306;10.484;2024-03-02T09:26:00;12.30;1.00
4187;DHT22;2107;52.306;10.484;2024-03-02T09:28:28;11.80;1.00
4187;DHT22;2107;52.306;10.484;2024-03-02T09:30:56;12.10;1.00
4187;DHT22;2107;52.306;10.484;2024-03-02T09:33:23;12.00;1.00
4187;DHT22;2107;52.306;10.484;2024-03-02T09:35:50;11.80;1.00
4187;DHT22;2107;52.306;10.484;2024-03-02T09:38:17;12.10;1.00
4187;DHT22;2107;52.306;10.484;2024-03-02T09:40:45;12.40;1.00
4187;DHT22;2107;52.306;10.484;2024-03-02T09:43:12;12.50;1.00
4187;DHT22;2107;52.306;10.484;2024-03-02T09:45:40;12.90;1.00
4187;DHT22;2107;52.306;10.484;2024-03-02T09:48:08;12.50;1.00
4187;DHT22;2107;52.306;10.484;2024-03-02T09:50:35;12.60;1.00
4187;DHT22;2107;52.306;10.484;2024-03-02T09:53:03;13.10;1.00
4187;DHT22;2107;52.306;10.484;2024-03-02T09:55:30;13.00;1.00
4187;DHT22;2107;52.306;10.484;2024-03-02T09:57:57;13.20;1.00
4187;DHT22;2107;52.306;10.484;2024-03-02T10:00:24;13.30;1.00
4187;DHT22;2107;52.306;10.484;2024-03-02T10:02:52;12.80;1.00
4187;DHT22;2107;52.306;10.484;2024-03-02T10:05:27;12.70;1.00
4187;DHT22;2107;52.306;10.484;2024-03-02T10:08:01;12.90;1.00
4187;DHT22;2107;52.306;10.484;2024-03-02T10:10:35;13.70;1.00
4187;DHT22;2107;52.306;10.484;2024-03-02T10:13:06;13.90;1.00
4187;DHT22;2107;52.306;10.484;2024-03-02T10:15:34;13.00;1.00
4187;DHT22;2107;52.306;10.484;2024-03-02T10:18:02;13.10;1.00
4187;DHT22;2107;52.306;10.484;2024-03-02T10:20:30;13.50;1.00
4187;DHT22;2107;52.306;10.484;2024-03-02T10:23:10;14.00;1.00
4187;DHT22;2107;52.306;10.484;2024-03-02T10:25:37;14.20;1.00
4187;DHT22;2107;52.306;10.484;2024-03-02T10:28:06;13.20;1.00
4187;DHT22;2107;52.306;10.484;2024-03-02T10:30:34;12.90;1.00
4187;DHT22;2107;52.306;10.484;2024-03-02T10:33:01;12.40;1.00
4187;DHT22;2107;52.306;10.484;2024-03-02T10:35:29;12.90;1.00
4187;DHT22;2107;52.306;10.484;2024-03-02T10:37:58;13.00;1.00
4187;DHT22;2107;52.306;10.484;2024-03-02T10:40:27;13.70;1.00
4187;DHT22;2107;52.306;10.484;2024-03-02T10:42:54;13.80;1.00
4187;DHT22;2107;52.306;10.484;2024-03-02T10:45:22;13.50;1.00
4187;DHT22;2107;52.306;10.484;2024-03-02T10:47:50;13.10;1.00
4187;DHT22;2107;52.306;10.484;2024-03-02T10:50:19;13.80;1.00
4187;DHT22;2107;52.306;10.484;2024-03-02T10:52:47;14.30;1.00
4187;DHT22;2107;52.306;10.484;2024-03-02T10:55:15;14.00;1.00
4187;DHT22;2107;52.306;10.484;2024-03-02T10:57:48;14.10;1.00
4187;DHT22;2107;52.306;10.484;2024-03-02T11:00:18;14.10;1.00
4187;DHT22;2107;52.306;10.484;2024-03-02T11:02:51;14.30;1.00
4187;DHT22;2107;52.306;10.484;2024-03-02T11:05:26;13.40;1.00
4187;DHT22;2107;52.306;10.484;2024-03-02T11:08:00;13.30;1.00
4187;DHT22;2107;52.306;10.484;2024-03-02T11:10:34;13.70;1.00
4187;DHT22;2107;52.306;10.484;2024-03-02T11:13:08;13.70;1.00
4187;DHT22;2107;52.306;10.484;2024-03-02T11:15:40;13.10;1.00
4187;DHT22;2107;52.306;10.484;2024-03-02T11:18:10;12.80;1.00
4187;DHT22;2107;52.306;10.484;2024-03-02T11:20:38;13.20;1.00
4187;DHT22;2107;52.306;10.484;2024-03-02T11:23:07;13.20;1.00
4187;DHT22;2107;52.306;10.484;2024-03-02T11:25:35;13.40;1.00
4187;DHT22;2107;52.306;10.484;2024-03-02T11:28:04;13.30;1.00
4187;DHT22;2107;52.306;10.484;2024-03-02T11:30:50;13.60;1.00
4187;DHT22;2107;52.306;10.484;2024-03-02T11:33:23;13.70;1.00
4187;DHT22;2107;52.306;10.484;2024-03-02T11:35:53;13.30;1.00
4187;DHT22;2107;52.306;10.484;2024-03-02T11:38:31;13.40;1.00
4187;DHT22;2107;52.306;10.484;2024-03-02T11:41:00;13.70;1.00
4187;DHT22;2107;52.306;10.484;2024-03-02T11:43:28;13.50;1.00
4187;DHT22;2107;52.306;10.484;2024-03-02T11:45:59;13.50;1.00
4187;DHT22;2107;52.306;10.484;2024-03-02T11:48:29;13.70;1.00
4187;DHT22;2107;52.306;10.484;2024-03-02T11:50:58;13.30;1.00
4187;DHT22;2107;52.306;10.484;2024-03-02T11:53:27;13.40;1.00
4187;DHT22;2107;52.306;10.484;2024-03-02T11:55:55;13.70;1.00
4187;DHT22;2107;52.306;10.484;2024-03-02T11:58:22;13.40;1.00
4187;DHT22;2107;52.306;10.484;2024-03-02T12:00:52;13.70;1.00
4187;DHT22;2107;52.306;10.484;2024-03-02T12:03:21;13.90;1.00
4187;DHT22;2107;52.306;10.484;2024-03-02T12:05:51;14.00;1.00
4187;DHT22;2107;52.306;10.484;2024-03-02T12:08:19;14.10;1.00
4187;DHT22;2107;52.306;10.484;2024-03-02T12:10:58;14.20;1.00
4187;DHT22;2107;52.306;10.484;2024-03-02T12:13:26;14.40;1.00
4187;DHT22;2107;52.306;10.484;2024-03-02T12:15:54;13.40;1.00
4187;DHT22;2107;52.306;10.484;2024-03-02T12:18:21;13.30;1.00
4187;DHT22;2107;52.306;10.484;2024-03-02T12:20:49;13.70;1.00
4187;DHT22;2107;52.306;10.484;2024-03-02T12:23:18;14.10;1.00
4187;DHT22;2107;52.306;10.484;2024-03-02T12:25:45;13.90;1.00
4187;DHT22;2107;52.306;10.484;2024-03-02T12:28:14;14.40;1.00
4187;DHT22;2107;52.306;10.484;2024-03-02T12:30:41;14.40;1.00
4187;DHT22;2107;52.306;10.484;2024-03-02T12:33:08;14.30;1.00
4187;DHT22;2107;52.306;10.484;2024-03-02T12:35:37;14.60;1.00
4187;DHT22;2107;52.306;10.484;2024-03-02T12:38:05;14.40;1.00
4187;DHT22;2107;52.306;10.484;2024-03-02T12:40:32;15.10;1.00
4187;DHT22;2107;52.306;10.484;2024-03-02T12:42:58;14.80;1.00
4187;DHT22;2107;52.306;10.484;2024-03-02T12:45:27;15.40;1.00
4187;DHT22;2107;52.306;10.484;2024-03-02T12:47:54;15.60;1.00
4187;DHT22;2107;52.306;10.484;2024-03-02T12:50:21;16.00;1.00
4187;DHT22;2107;52.306;10.484;2024-03-02T12:52:52;15.50;1.00
4187;DHT22;2107;52.306;10.484;2024-03-02T12:55:20;15.10;1.00
4187;DHT22;2107;52.306;10.484;2024-03-02T12:57:47;14.80;1.00
4187;DHT22;2107;52.306;10.484;2024-03-02T13:00:18;15.30;1.00
4187;DHT22;2107;52.306;10.484;2024-03-02T13:02:47;15.10;1.00
4187;DHT22;2107;52.306;10.484;2024-03-02T13:05:16;15.10;1.00
4187;DHT22;2107;52.306;10.484;2024-03-02T13:07:43;15.40;1.00
4187;DHT22;2107;52.306;10.484;2024-03-02T13:10:10;14.90;1.00
4187;DHT22;2107;52.306;10.484;2024-03-02T13:12:38;14.60;1.00
4187;DHT22;2107;52.306;10.484;2024-03-02T13:15:06;14.40;1.00
4187;DHT22;2107;52.306;10.484;2024-03-02T13:17:34;15.20;1.00
4187;DHT22;2107;52.306;10.484;2024-03-02T13:20:03;15.20;1.00
4187;DHT22;2107;52.306;10.484;2024-03-02T13:22:33;15.40;1.00
4187;DHT22;2107;52.306;10.484;2024-03-02T13:25:00;15.20;1.00
4187;DHT22;2107;52.306;10.484;2024-03-02T13:27:29;15.50;1.00
4187;DHT22;2107;52.306;10.484;2024-03-02T13:29:56;15.10;1.00
4187;DHT22;2107;52.306;10.484;2024-03-02T13:32:24;15.40;1.00
4187;DHT22;2107;52.306;10.484;2024-03-02T13:34:51;15.30;1.00
4187;DHT22;2107;52.306;10.484;2024-03-02T13:37:20;15.60;1.00
4187;DHT22;2107;52.306;10.484;2024-03-02T13:39:47;15.30;1.00
4187;DHT22;2107;52.306;10.484;2024-03-02T13:42:13;15.30;1.00
4187;DHT22;2107;52.306;10.484;2024-03-02T13:44:42;14.60;1.00
4187;DHT22;2107;52.306;10.484;2024-03-02T13:47:11;14.70;1.00
4187;DHT22;2107;52.306;10.484;2024-03-02T13:49:38;14.80;1.00
4187;DHT22;2107;52.306;10.484;2024-03-02T13:52:09;14.80;1.00
4187;DHT22;2107;52.306;10.484;2024-03-02T13:54:40;14.90;1.00
4187;DHT22;2107;52.306;10.484;2024-03-02T13:57:09;14.40;1.00
4187;DHT22;2107;52.306;10.484;2024-03-02T13:59:36;14.60;1.00
4187;DHT22;2107;52.306;10.484;2024-03-02T14:02:04;15.00;1.00
4187;DHT22;2107;52.306;10.484;2024-03-02T14:04:31;15.90;1.00
4187;DHT22;2107;52.306;10.484;2024-03-02T14:06:59;16.00;1.00
4187;DHT22;2107;52.306;10.484;2024-03-02T14:09:26;15.30;1.00
4187;DHT22;2107;52.306;10.484;2024-03-02T14:11:54;16.50;1.00
4187;DHT22;2107;52.306;10.484;2024-03-02T14:14:21;17.30;1.00
4187;DHT22;2107;52.306;10.484;2024-03-02T14:16:50;17.70;1.00
4187;DHT22;2107;52.306;10.484;2024-03-02T14:19:16;16.20;1.00
4187;DHT22;2107;52.306;10.484;2024-03-02T14:21:43;15.80;1.00
4187;DHT22;2107;52.306;10.484;2024-03-02T14:24:11;16.30;1.00
4187;DHT22;2107;52.306;10.484;2024-03-02T14:26:38;18.00;11.00
4187;DHT22;2107;52.306;10.484;2024-03-02T14:29:07;16.90;1.00
4187;DHT22;2107;52.306;10.484;2024-03-02T14:31:35;16.40;1.00
4187;DHT22;2107;52.306;10.484;2024-03-02T14:34:02;16.00;1.00
4187;DHT22;2107;52.306;10.484;2024-03-02T14:36:29;16.00;1.00
4187;DHT22;2107;52.306;10.484;2024-03-02T14:38:56;17.70;1.00
4187;DHT22;2107;52.306;10.484;2024-03-02T14:41:25;16.60;1.00
4187;DHT22;2107;52.306;10.484;2024-03-02T14:43:52;17.10;1.00
4187;DHT22;2107;52.306;10.484;2024-03-02T14:46:21;18.20;1.00
4187;DHT22;2107;52.306;10.484;2024-03-02T14:48:47;17.40;1.00
4187;DHT22;2107;52.306;10.484;2024-03-02T14:51:14;17.10;1.00
4187;DHT22;2107;52.306;10.484;2024-03-02T14:53:42;16.40;1.00
4187;DHT22;2107;52.306;10.484;2024-03-02T14:56:09;16.20;1.00
4187;DHT22;2107;52.306;10.484;2024-03-02T14:58:42;17.10;1.00
4187;DHT22;2107;52.306;10.484;2024-03-02T15:01:09;17.40;1.00
4187;DHT22;2107;52.306;10.484;2024-03-02T15:03:37;15.30;1.00
4187;DHT22;2107;52.306;10.484;2024-03-02T15:06:05;14.90;1.00
4187;DHT22;2107;52.306;10.484;2024-03-02T15:08:33;15.00;1.00
4187;DHT22;2107;52.306;10.484;2024-03-02T15:11:00;14.90;1.00
4187;DHT22;2107;52.306;10.484;2024-03-02T15:13:29;14.50;1.00
4187;DHT22;2107;52.306;10.484;2024-03-02T15:15:56;14.40;1.00
4187;DHT22;2107;52.306;10.484;2024-03-02T15:18:24;14.10;1.00
4187;DHT22;2107;52.306;10.484;2024-03-02T15:20:52;13.90;1.00
4187;DHT22;2107;52.306;10.484;2024-03-02T15:23:20;13.80;1.00
4187;DHT22;2107;52.306;10.484;2024-03-02T15:25:46;13.80;1.00
4187;DHT22;2107;52.306;10.484;2024-03-02T15:28:13;13.80;1.00
4187;DHT22;2107;52.306;10.484;2024-03-02T15:30:40;13.80;1.00
4187;DHT22;2107;52.306;10.484;2024-03-02T15:33:08;13.70;1.00
4187;DHT22;2107;52.306;10.484;2024-03-02T15:35:34;13.60;1.00
4187;DHT22;2107;52.306;10.484;2024-03-02T15:38:03;13.60;1.00
4187;DHT22;2107;52.306;10.484;2024-03-02T15:40:30;13.60;1.00
4187;DHT22;2107;52.306;10.484;2024-03-02T15:42:57;13.50;1.00
4187;DHT22;2107;52.306;10.484;2024-03-02T15:45:26;13.60;1.00
4187;DHT22;2107;52.306;10.484;2024-03-02T15:47:59;13.50;1.00
4187;DHT22;2107;52.306;10.484;2024-03-02T15:50:26;13.50;1.00
4187;DHT22;2107;52.306;10.484;2024-03-02T15:52:53;13.50;1.00
4187;DHT22;2107;52.306;10.484;2024-03-02T15:55:22;13.40;1.00
4187;DHT22;2107;52.306;10.484;2024-03-02T15:57:49;13.30;1.00
4187;DHT22;2107;52.306;10.484;2024-03-02T16:00:17;13.30;1.00
4187;DHT22;2107;52.306;10.484;2024-03-02T16:02:43;13.20;1.00
4187;DHT22;2107;52.306;10.484;2024-03-02T16:05:10;13.20;1.00
4187;DHT22;2107;52.306;10.484;2024-03-02T16:07:38;13.20;1.00
4187;DHT22;2107;52.306;10.484;2024-03-02T16:10:06;13.20;1.00